CYHZ/YHZ METAR and TAF weather

Enter ICAO airport designator
Station Type Date Time Source
CYHZ METAR 2021/07/30 06:00 UTC NOAA

CYHZ 300600Z 18007KT 15SM OVC150 15/12 A2989 RMK AS8 SLP123 DENSITY ALT 700FT


Station Type Date Time Source
CYHZ Decoded METAR 2021/07/30 06:00 UTC NOAA

Halifax International Airport , Canada (CYHZ) 44-53N 063-30W
Jul 30, 2021 - 02:00 AM EDT / 2021.07.30 0600 UTC
Wind: from the S (180 degrees) at 8 MPH (7 KT):0
Visibility: 15 mile(s):0
Sky conditions: overcast
Temperature: 59 F (15 C)
Dew Point: 53 F (12 C)
Relative Humidity: 82%
Pressure (altimeter): 29.89 in. Hg (1012 hPa)
ob: CYHZ 300600Z 18007KT 15SM OVC150 15/12 A2989 RMK AS8 SLP123 DENSITY ALT 700FT
cycle: 6

Station Type Date Time Source
CYHZ TAF 2021/07/30 06:42 UTC NOAA

TAF CYHZ 300538Z 3006/3106 18008KT P6SM OVC160
FM300800 18008KT P6SM BKN100
FM301300 16015G25KT P6SM -SHRA BKN030 OVC100
FM301600 13015G25KT 5SM -RA BR BKN008 OVC015
FM301900 19012G22KT P6SM OVC010
FM310100 26010G20KT P6SM BKN015
RMK NXT FCST BY 300900Z

Example: see airport list